sensor_id;sensor_type;location;lat;lon;timestamp;P1;durP1;ratioP1;P2;durP2;ratioP2
3755;SDS011;1893;52.526;13.360;2023-05-10T00:00:00;8.80;;;6.30;;
3755;SDS011;1893;52.526;13.360;2023-05-10T00:02:25;6.30;;;5.63;;
3755;SDS011;1893;52.526;13.360;2023-05-10T00:04:52;6.63;;;5.63;;
3755;SDS011;1893;52.526;13.360;2023-05-10T00:07:17;7.60;;;5.93;;
3755;SDS011;1893;52.526;13.360;2023-05-10T00:09:43;5.60;;;4.87;;
3755;SDS011;1893;52.526;13.360;2023-05-10T00:12:09;6.63;;;5.90;;
3755;SDS011;1893;52.526;13.360;2023-05-10T00:14:34;9.97;;;6.33;;
3755;SDS011;1893;52.526;13.360;2023-05-10T00:17:00;10.73;;;5.87;;
3755;SDS011;1893;52.526;13.360;2023-05-10T00:19:26;6.43;;;5.83;;
3755;SDS011;1893;52.526;13.360;2023-05-10T00:21:51;6.57;;;5.83;;
3755;SDS011;1893;52.526;13.360;2023-05-10T00:24:17;7.30;;;5.73;;
3755;SDS011;1893;52.526;13.360;2023-05-10T00:26:43;7.20;;;5.70;;
3755;SDS011;1893;52.526;13.360;2023-05-10T00:29:08;6.67;;;6.03;;
3755;SDS011;1893;52.526;13.360;2023-05-10T00:31:34;6.23;;;5.43;;
3755;SDS011;1893;52.526;13.360;2023-05-10T00:33:59;6.43;;;5.83;;
3755;SDS011;1893;52.526;13.360;2023-05-10T00:36:25;8.17;;;6.10;;
3755;SDS011;1893;52.526;13.360;2023-05-10T00:38:51;9.10;;;6.17;;
3755;SDS011;1893;52.526;13.360;2023-05-10T00:41:16;7.63;;;5.50;;
3755;SDS011;1893;52.526;13.360;2023-05-10T00:43:42;7.17;;;5.93;;
3755;SDS011;1893;52.526;13.360;2023-05-10T00:46:08;7.03;;;6.20;;
3755;SDS011;1893;52.526;13.360;2023-05-10T00:48:33;8.73;;;7.10;;
3755;SDS011;1893;52.526;13.360;2023-05-10T00:51:00;7.07;;;6.00;;
3755;SDS011;1893;52.526;13.360;2023-05-10T00:53:26;9.00;;;6.27;;
3755;SDS011;1893;52.526;13.360;2023-05-10T00:55:52;7.63;;;6.83;;
3755;SDS011;1893;52.526;13.360;2023-05-10T00:58:18;6.77;;;5.90;;
3755;SDS011;1893;52.526;13.360;2023-05-10T01:00:43;9.13;;;6.50;;
3755;SDS011;1893;52.526;13.360;2023-05-10T01:03:12;9.60;;;7.47;;
3755;SDS011;1893;52.526;13.360;2023-05-10T01:05:38;7.93;;;6.60;;
3755;SDS011;1893;52.526;13.360;2023-05-10T01:08:03;7.23;;;6.53;;
3755;SDS011;1893;52.526;13.360;2023-05-10T01:10:29;6.73;;;6.10;;
3755;SDS011;1893;52.526;13.360;2023-05-10T01:12:56;7.73;;;6.97;;
3755;SDS011;1893;52.526;13.360;2023-05-10T01:15:21;10.73;;;6.90;;
3755;SDS011;1893;52.526;13.360;2023-05-10T01:17:47;6.53;;;5.93;;
3755;SDS011;1893;52.526;13.360;2023-05-10T01:20:14;8.93;;;6.43;;
3755;SDS011;1893;52.526;13.360;2023-05-10T01:22:45;7.63;;;6.70;;
3755;SDS011;1893;52.526;13.360;2023-05-10T01:31:22;11.70;;;7.27;;
3755;SDS011;1893;52.526;13.360;2023-05-10T01:34:13;9.13;;;7.10;;
3755;SDS011;1893;52.526;13.360;2023-05-10T01:36:43;7.07;;;5.80;;
3755;SDS011;1893;52.526;13.360;2023-05-10T01:42:23;12.63;;;5.90;;
3755;SDS011;1893;52.526;13.360;2023-05-10T01:47:58;8.27;;;6.80;;
3755;SDS011;1893;52.526;13.360;2023-05-10T01:50:30;8.13;;;6.83;;
3755;SDS011;1893;52.526;13.360;2023-05-10T01:52:58;8.83;;;6.63;;
3755;SDS011;1893;52.526;13.360;2023-05-10T01:55:25;9.30;;;6.30;;
3755;SDS011;1893;52.526;13.360;2023-05-10T01:58:05;9.30;;;6.30;;
3755;SDS011;1893;52.526;13.360;2023-05-10T02:00:34;7.20;;;6.53;;
3755;SDS011;1893;52.526;13.360;2023-05-10T02:03:01;14.10;;;7.23;;
3755;SDS011;1893;52.526;13.360;2023-05-10T02:05:31;9.50;;;5.70;;
3755;SDS011;1893;52.526;13.360;2023-05-10T02:07:58;7.37;;;6.13;;
3755;SDS011;1893;52.526;13.360;2023-05-10T02:10:26;6.63;;;5.37;;
3755;SDS011;1893;52.526;13.360;2023-05-10T02:12:53;7.57;;;6.03;;
3755;SDS011;1893;52.526;13.360;2023-05-10T02:15:22;7.00;;;6.33;;
3755;SDS011;1893;52.526;13.360;2023-05-10T02:17:49;8.00;;;6.30;;
3755;SDS011;1893;52.526;13.360;2023-05-10T02:20:16;7.20;;;6.30;;
3755;SDS011;1893;52.526;13.360;2023-05-10T02:22:44;7.63;;;6.50;;
3755;SDS011;1893;52.526;13.360;2023-05-10T02:25:12;9.30;;;6.47;;
3755;SDS011;1893;52.526;13.360;2023-05-10T02:27:40;8.77;;;6.60;;
3755;SDS011;1893;52.526;13.360;2023-05-10T02:30:08;8.50;;;6.50;;
3755;SDS011;1893;52.526;13.360;2023-05-10T02:32:35;7.60;;;6.40;;
3755;SDS011;1893;52.526;13.360;2023-05-10T02:35:02;7.87;;;6.73;;
3755;SDS011;1893;52.526;13.360;2023-05-10T02:37:29;8.80;;;6.30;;
3755;SDS011;1893;52.526;13.360;2023-05-10T02:39:56;12.67;;;6.63;;
3755;SDS011;1893;52.526;13.360;2023-05-10T02:42:23;9.40;;;6.70;;
3755;SDS011;1893;52.526;13.360;2023-05-10T02:44:52;9.17;;;6.90;;
3755;SDS011;1893;52.526;13.360;2023-05-10T02:47:24;7.20;;;6.47;;
3755;SDS011;1893;52.526;13.360;2023-05-10T02:49:49;6.80;;;5.83;;
3755;SDS011;1893;52.526;13.360;2023-05-10T02:52:16;8.10;;;6.60;;
3755;SDS011;1893;52.526;13.360;2023-05-10T02:54:48;8.03;;;5.53;;
3755;SDS011;1893;52.526;13.360;2023-05-10T02:57:17;8.13;;;6.37;;
3755;SDS011;1893;52.526;13.360;2023-05-10T02:59:54;6.30;;;5.70;;
3755;SDS011;1893;52.526;13.360;2023-05-10T03:02:20;6.13;;;5.63;;
3755;SDS011;1893;52.526;13.360;2023-05-10T03:04:46;6.80;;;5.97;;
3755;SDS011;1893;52.526;13.360;2023-05-10T03:07:12;7.43;;;5.63;;
3755;SDS011;1893;52.526;13.360;2023-05-10T03:09:38;8.23;;;5.97;;
3755;SDS011;1893;52.526;13.360;2023-05-10T03:12:09;6.00;;;5.20;;
3755;SDS011;1893;52.526;13.360;2023-05-10T03:17:56;10.70;;;5.50;;
3755;SDS011;1893;52.526;13.360;2023-05-10T03:20:29;7.60;;;6.13;;
3755;SDS011;1893;52.526;13.360;2023-05-10T03:23:00;6.10;;;5.50;;
3755;SDS011;1893;52.526;13.360;2023-05-10T03:25:31;7.03;;;6.20;;
3755;SDS011;1893;52.526;13.360;2023-05-10T03:27:57;9.97;;;5.70;;
3755;SDS011;1893;52.526;13.360;2023-05-10T03:30:25;8.30;;;6.43;;
3755;SDS011;1893;52.526;13.360;2023-05-10T03:32:51;10.43;;;6.30;;
3755;SDS011;1893;52.526;13.360;2023-05-10T03:35:17;6.23;;;5.63;;
3755;SDS011;1893;52.526;13.360;2023-05-10T03:37:43;7.40;;;5.67;;
3755;SDS011;1893;52.526;13.360;2023-05-10T03:40:09;5.60;;;5.10;;
3755;SDS011;1893;52.526;13.360;2023-05-10T03:42:35;7.67;;;6.50;;
3755;SDS011;1893;52.526;13.360;2023-05-10T03:45:01;5.70;;;5.20;;
3755;SDS011;1893;52.526;13.360;2023-05-10T03:47:27;6.57;;;5.57;;
3755;SDS011;1893;52.526;13.360;2023-05-10T03:49:52;10.03;;;6.80;;
3755;SDS011;1893;52.526;13.360;2023-05-10T03:52:18;8.73;;;5.30;;
3755;SDS011;1893;52.526;13.360;2023-05-10T03:54:44;6.87;;;5.40;;
3755;SDS011;1893;52.526;13.360;2023-05-10T03:57:09;6.87;;;5.47;;
3755;SDS011;1893;52.526;13.360;2023-05-10T03:59:35;9.27;;;5.73;;
3755;SDS011;1893;52.526;13.360;2023-05-10T04:02:00;7.00;;;4.87;;
3755;SDS011;1893;52.526;13.360;2023-05-10T04:04:26;6.03;;;5.43;;
3755;SDS011;1893;52.526;13.360;2023-05-10T04:06:51;6.33;;;5.20;;
3755;SDS011;1893;52.526;13.360;2023-05-10T04:09:17;5.50;;;4.77;;
3755;SDS011;1893;52.526;13.360;2023-05-10T04:11:43;11.23;;;5.70;;
3755;SDS011;1893;52.526;13.360;2023-05-10T04:14:08;7.13;;;4.80;;
3755;SDS011;1893;52.526;13.360;2023-05-10T04:16:34;5.60;;;4.90;;
3755;SDS011;1893;52.526;13.360;2023-05-10T04:19:00;7.63;;;5.20;;
3755;SDS011;1893;52.526;13.360;2023-05-10T04:21:25;6.40;;;5.40;;
3755;SDS011;1893;52.526;13.360;2023-05-10T04:23:51;8.43;;;5.57;;
3755;SDS011;1893;52.526;13.360;2023-05-10T04:26:16;10.93;;;4.60;;
3755;SDS011;1893;52.526;13.360;2023-05-10T04:28:42;8.73;;;5.20;;
3755;SDS011;1893;52.526;13.360;2023-05-10T04:31:09;7.50;;;4.73;;
3755;SDS011;1893;52.526;13.360;2023-05-10T04:33:35;6.63;;;5.93;;
3755;SDS011;1893;52.526;13.360;2023-05-10T04:36:02;5.97;;;5.37;;
3755;SDS011;1893;52.526;13.360;2023-05-10T04:38:28;5.07;;;4.57;;
3755;SDS011;1893;52.526;13.360;2023-05-10T04:40:54;6.50;;;4.53;;
3755;SDS011;1893;52.526;13.360;2023-05-10T04:43:28;6.27;;;4.63;;
3755;SDS011;1893;52.526;13.360;2023-05-10T04:45:55;6.17;;;5.30;;
3755;SDS011;1893;52.526;13.360;2023-05-10T04:48:21;6.10;;;5.50;;
3755;SDS011;1893;52.526;13.360;2023-05-10T04:50:47;7.63;;;5.67;;
3755;SDS011;1893;52.526;13.360;2023-05-10T04:53:13;6.37;;;5.70;;
3755;SDS011;1893;52.526;13.360;2023-05-10T04:55:38;38.50;;;8.20;;
3755;SDS011;1893;52.526;13.360;2023-05-10T04:58:04;13.90;;;7.60;;
3755;SDS011;1893;52.526;13.360;2023-05-10T05:00:30;10.40;;;6.90;;
3755;SDS011;1893;52.526;13.360;2023-05-10T05:02:55;5.43;;;4.90;;
3755;SDS011;1893;52.526;13.360;2023-05-10T05:05:21;5.20;;;4.40;;
3755;SDS011;1893;52.526;13.360;2023-05-10T05:07:46;5.80;;;5.23;;
3755;SDS011;1893;52.526;13.360;2023-05-10T05:10:12;5.63;;;4.47;;
3755;SDS011;1893;52.526;13.360;2023-05-10T05:12:38;10.60;;;4.63;;
3755;SDS011;1893;52.526;13.360;2023-05-10T05:15:04;7.80;;;4.30;;
3755;SDS011;1893;52.526;13.360;2023-05-10T05:17:30;5.63;;;4.13;;
3755;SDS011;1893;52.526;13.360;2023-05-10T05:19:56;4.67;;;4.20;;
3755;SDS011;1893;52.526;13.360;2023-05-10T05:22:22;5.30;;;4.30;;
3755;SDS011;1893;52.526;13.360;2023-05-10T05:24:55;5.00;;;3.93;;
3755;SDS011;1893;52.526;13.360;2023-05-10T05:27:23;7.83;;;4.93;;
3755;SDS011;1893;52.526;13.360;2023-05-10T05:29:54;5.60;;;3.70;;
3755;SDS011;1893;52.526;13.360;2023-05-10T05:32:20;6.13;;;4.60;;
3755;SDS011;1893;52.526;13.360;2023-05-10T05:34:46;5.43;;;4.60;;
3755;SDS011;1893;52.526;13.360;2023-05-10T05:37:13;4.30;;;3.80;;
3755;SDS011;1893;52.526;13.360;2023-05-10T05:39:43;4.63;;;4.13;;
3755;SDS011;1893;52.526;13.360;2023-05-10T05:42:09;5.00;;;3.93;;
3755;SDS011;1893;52.526;13.360;2023-05-10T05:44:35;8.73;;;3.63;;
3755;SDS011;1893;52.526;13.360;2023-05-10T05:47:01;7.33;;;4.20;;
3755;SDS011;1893;52.526;13.360;2023-05-10T05:49:27;4.97;;;4.27;;
3755;SDS011;1893;52.526;13.360;2023-05-10T05:51:53;4.23;;;3.80;;
3755;SDS011;1893;52.526;13.360;2023-05-10T05:54:18;10.57;;;4.20;;
3755;SDS011;1893;52.526;13.360;2023-05-10T05:56:44;4.77;;;3.43;;
3755;SDS011;1893;52.526;13.360;2023-05-10T05:59:10;4.77;;;3.50;;
3755;SDS011;1893;52.526;13.360;2023-05-10T06:01:36;6.63;;;3.70;;
3755;SDS011;1893;52.526;13.360;2023-05-10T06:04:01;8.33;;;4.23;;
3755;SDS011;1893;52.526;13.360;2023-05-10T06:06:27;4.80;;;3.50;;
3755;SDS011;1893;52.526;13.360;2023-05-10T06:08:53;4.37;;;3.97;;
3755;SDS011;1893;52.526;13.360;2023-05-10T06:11:19;9.13;;;3.30;;
3755;SDS011;1893;52.526;13.360;2023-05-10T06:13:45;5.23;;;3.57;;
3755;SDS011;1893;52.526;13.360;2023-05-10T06:16:12;5.43;;;3.27;;
3755;SDS011;1893;52.526;13.360;2023-05-10T06:18:38;3.40;;;3.07;;
3755;SDS011;1893;52.526;13.360;2023-05-10T06:21:03;4.57;;;3.90;;
3755;SDS011;1893;52.526;13.360;2023-05-10T06:23:29;4.93;;;3.37;;
3755;SDS011;1893;52.526;13.360;2023-05-10T06:25:55;4.07;;;3.20;;
3755;SDS011;1893;52.526;13.360;2023-05-10T06:28:20;4.80;;;3.27;;
3755;SDS011;1893;52.526;13.360;2023-05-10T06:30:46;4.57;;;3.17;;
3755;SDS011;1893;52.526;13.360;2023-05-10T06:33:11;6.00;;;3.30;;
3755;SDS011;1893;52.526;13.360;2023-05-10T06:35:37;8.87;;;3.80;;
3755;SDS011;1893;52.526;13.360;2023-05-10T06:38:03;4.93;;;2.83;;
3755;SDS011;1893;52.526;13.360;2023-05-10T06:40:29;5.03;;;4.53;;
3755;SDS011;1893;52.526;13.360;2023-05-10T06:42:55;3.57;;;3.07;;
3755;SDS011;1893;52.526;13.360;2023-05-10T06:45:20;6.03;;;2.90;;
3755;SDS011;1893;52.526;13.360;2023-05-10T06:47:46;4.23;;;3.77;;
3755;SDS011;1893;52.526;13.360;2023-05-10T06:50:11;3.83;;;3.20;;
3755;SDS011;1893;52.526;13.360;2023-05-10T06:52:37;6.80;;;4.03;;
3755;SDS011;1893;52.526;13.360;2023-05-10T06:55:03;3.20;;;3.00;;
3755;SDS011;1893;52.526;13.360;2023-05-10T06:57:29;5.40;;;2.87;;
3755;SDS011;1893;52.526;13.360;2023-05-10T06:59:55;3.53;;;3.23;;
3755;SDS011;1893;52.526;13.360;2023-05-10T07:02:21;3.53;;;3.13;;
3755;SDS011;1893;52.526;13.360;2023-05-10T07:04:47;3.90;;;2.60;;
3755;SDS011;1893;52.526;13.360;2023-05-10T07:07:13;3.30;;;3.00;;
3755;SDS011;1893;52.526;13.360;2023-05-10T07:09:39;4.53;;;3.30;;
3755;SDS011;1893;52.526;13.360;2023-05-10T07:12:05;2.97;;;2.23;;
3755;SDS011;1893;52.526;13.360;2023-05-10T07:14:31;4.13;;;2.53;;
3755;SDS011;1893;52.526;13.360;2023-05-10T07:16:56;2.93;;;2.50;;
3755;SDS011;1893;52.526;13.360;2023-05-10T07:19:22;4.90;;;2.80;;
3755;SDS011;1893;52.526;13.360;2023-05-10T07:21:48;3.67;;;2.83;;
3755;SDS011;1893;52.526;13.360;2023-05-10T07:24:13;3.90;;;3.30;;
3755;SDS011;1893;52.526;13.360;2023-05-10T07:26:39;5.83;;;3.30;;
3755;SDS011;1893;52.526;13.360;2023-05-10T07:29:04;5.10;;;3.40;;
3755;SDS011;1893;52.526;13.360;2023-05-10T07:31:30;5.83;;;3.03;;
3755;SDS011;1893;52.526;13.360;2023-05-10T07:33:56;2.90;;;2.60;;
3755;SDS011;1893;52.526;13.360;2023-05-10T07:36:21;4.50;;;2.50;;
3755;SDS011;1893;52.526;13.360;2023-05-10T07:38:47;3.03;;;2.70;;
3755;SDS011;1893;52.526;13.360;2023-05-10T07:41:14;6.13;;;3.23;;
3755;SDS011;1893;52.526;13.360;2023-05-10T07:43:39;2.80;;;2.60;;
3755;SDS011;1893;52.526;13.360;2023-05-10T07:46:05;3.30;;;2.70;;
3755;SDS011;1893;52.526;13.360;2023-05-10T07:48:31;4.53;;;3.23;;
3755;SDS011;1893;52.526;13.360;2023-05-10T07:50:56;3.43;;;2.90;;
3755;SDS011;1893;52.526;13.360;2023-05-10T07:53:22;3.63;;;2.90;;
3755;SDS011;1893;52.526;13.360;2023-05-10T07:55:51;3.37;;;2.80;;
3755;SDS011;1893;52.526;13.360;2023-05-10T07:58:19;9.33;;;2.60;;
3755;SDS011;1893;52.526;13.360;2023-05-10T08:00:45;3.10;;;2.80;;
3755;SDS011;1893;52.526;13.360;2023-05-10T08:03:10;3.50;;;3.20;;
3755;SDS011;1893;52.526;13.360;2023-05-10T08:05:36;5.80;;;3.30;;
3755;SDS011;1893;52.526;13.360;2023-05-10T08:08:01;3.07;;;2.87;;
3755;SDS011;1893;52.526;13.360;2023-05-10T08:10:27;5.63;;;3.10;;
3755;SDS011;1893;52.526;13.360;2023-05-10T08:12:53;5.47;;;3.00;;
3755;SDS011;1893;52.526;13.360;2023-05-10T08:15:18;6.00;;;2.47;;
3755;SDS011;1893;52.526;13.360;2023-05-10T08:17:44;3.73;;;2.40;;
3755;SDS011;1893;52.526;13.360;2023-05-10T08:20:09;6.03;;;2.53;;
3755;SDS011;1893;52.526;13.360;2023-05-10T08:22:37;3.20;;;2.90;;
3755;SDS011;1893;52.526;13.360;2023-05-10T08:25:03;3.93;;;2.47;;
3755;SDS011;1893;52.526;13.360;2023-05-10T08:27:29;3.73;;;3.43;;
3755;SDS011;1893;52.526;13.360;2023-05-10T08:29:54;3.67;;;2.70;;
3755;SDS011;1893;52.526;13.360;2023-05-10T08:32:20;3.90;;;3.60;;
3755;SDS011;1893;52.526;13.360;2023-05-10T08:34:46;3.07;;;2.63;;
3755;SDS011;1893;52.526;13.360;2023-05-10T08:37:11;4.13;;;3.27;;
3755;SDS011;1893;52.526;13.360;2023-05-10T08:39:38;3.97;;;3.07;;
3755;SDS011;1893;52.526;13.360;2023-05-10T08:42:03;7.83;;;2.57;;
3755;SDS011;1893;52.526;13.360;2023-05-10T08:44:34;3.50;;;3.20;;
3755;SDS011;1893;52.526;13.360;2023-05-10T08:47:02;4.20;;;2.80;;
3755;SDS011;1893;52.526;13.360;2023-05-10T08:49:31;4.00;;;2.60;;
3755;SDS011;1893;52.526;13.360;2023-05-10T08:51:57;3.00;;;2.73;;
3755;SDS011;1893;52.526;13.360;2023-05-10T08:54:28;3.17;;;2.87;;
3755;SDS011;1893;52.526;13.360;2023-05-10T08:56:54;5.37;;;3.00;;
3755;SDS011;1893;52.526;13.360;2023-05-10T08:59:21;4.40;;;2.80;;
3755;SDS011;1893;52.526;13.360;2023-05-10T09:01:47;4.27;;;2.73;;
3755;SDS011;1893;52.526;13.360;2023-05-10T09:04:14;3.53;;;2.70;;
3755;SDS011;1893;52.526;13.360;2023-05-10T09:06:41;2.63;;;2.43;;
3755;SDS011;1893;52.526;13.360;2023-05-10T09:09:06;3.93;;;3.20;;
3755;SDS011;1893;52.526;13.360;2023-05-10T09:11:32;5.80;;;2.63;;
3755;SDS011;1893;52.526;13.360;2023-05-10T09:13:58;3.47;;;3.17;;
3755;SDS011;1893;52.526;13.360;2023-05-10T09:16:24;3.33;;;3.03;;
3755;SDS011;1893;52.526;13.360;2023-05-10T09:18:50;4.27;;;2.90;;
3755;SDS011;1893;52.526;13.360;2023-05-10T09:21:15;3.93;;;2.87;;
3755;SDS011;1893;52.526;13.360;2023-05-10T09:23:45;13.70;;;2.97;;
3755;SDS011;1893;52.526;13.360;2023-05-10T09:26:11;3.00;;;2.80;;
3755;SDS011;1893;52.526;13.360;2023-05-10T09:28:56;3.07;;;2.87;;
3755;SDS011;1893;52.526;13.360;2023-05-10T09:31:23;3.83;;;2.77;;
3755;SDS011;1893;52.526;13.360;2023-05-10T09:33:52;3.47;;;2.80;;
3755;SDS011;1893;52.526;13.360;2023-05-10T09:36:18;2.63;;;2.43;;
3755;SDS011;1893;52.526;13.360;2023-05-10T09:38:51;3.47;;;2.43;;
3755;SDS011;1893;52.526;13.360;2023-05-10T09:41:23;5.30;;;3.13;;
3755;SDS011;1893;52.526;13.360;2023-05-10T09:43:50;4.43;;;2.93;;
3755;SDS011;1893;52.526;13.360;2023-05-10T09:46:20;3.87;;;2.37;;
3755;SDS011;1893;52.526;13.360;2023-05-10T09:48:46;4.13;;;2.80;;
3755;SDS011;1893;52.526;13.360;2023-05-10T09:51:22;10.13;;;3.10;;
3755;SDS011;1893;52.526;13.360;2023-05-10T09:53:50;5.37;;;3.40;;
3755;SDS011;1893;52.526;13.360;2023-05-10T09:56:35;5.60;;;2.80;;
3755;SDS011;1893;52.526;13.360;2023-05-10T09:59:03;4.10;;;3.50;;
3755;SDS011;1893;52.526;13.360;2023-05-10T10:01:30;3.80;;;3.00;;
3755;SDS011;1893;52.526;13.360;2023-05-10T10:03:56;3.33;;;3.13;;
3755;SDS011;1893;52.526;13.360;2023-05-10T10:06:23;3.23;;;2.93;;
3755;SDS011;1893;52.526;13.360;2023-05-10T10:08:49;4.90;;;3.03;;
3755;SDS011;1893;52.526;13.360;2023-05-10T10:11:15;3.97;;;2.87;;
3755;SDS011;1893;52.526;13.360;2023-05-10T10:13:41;4.57;;;2.70;;
3755;SDS011;1893;52.526;13.360;2023-05-10T10:16:08;5.77;;;3.37;;
3755;SDS011;1893;52.526;13.360;2023-05-10T10:18:33;2.67;;;2.47;;
3755;SDS011;1893;52.526;13.360;2023-05-10T10:21:03;3.63;;;3.33;;
3755;SDS011;1893;52.526;13.360;2023-05-10T10:23:34;4.97;;;4.27;;
3755;SDS011;1893;52.526;13.360;2023-05-10T10:26:00;2.90;;;2.70;;
3755;SDS011;1893;52.526;13.360;2023-05-10T10:28:39;3.00;;;2.73;;
3755;SDS011;1893;52.526;13.360;2023-05-10T10:33:56;5.27;;;2.60;;
3755;SDS011;1893;52.526;13.360;2023-05-10T10:36:26;2.57;;;2.37;;
3755;SDS011;1893;52.526;13.360;2023-05-10T10:39:01;4.50;;;2.83;;
3755;SDS011;1893;52.526;13.360;2023-05-10T10:41:38;2.87;;;2.57;;
3755;SDS011;1893;52.526;13.360;2023-05-10T10:54:46;4.63;;;2.40;;
3755;SDS011;1893;52.526;13.360;2023-05-10T10:57:21;4.63;;;2.67;;
3755;SDS011;1893;52.526;13.360;2023-05-10T10:59:47;6.63;;;3.47;;
3755;SDS011;1893;52.526;13.360;2023-05-10T11:05:23;2.93;;;2.73;;
3755;SDS011;1893;52.526;13.360;2023-05-10T11:07:53;3.07;;;2.40;;
3755;SDS011;1893;52.526;13.360;2023-05-10T11:10:24;6.67;;;2.80;;
3755;SDS011;1893;52.526;13.360;2023-05-10T11:13:07;6.40;;;3.10;;
3755;SDS011;1893;52.526;13.360;2023-05-10T11:15:38;3.60;;;2.57;;
3755;SDS011;1893;52.526;13.360;2023-05-10T11:18:17;8.10;;;3.83;;
3755;SDS011;1893;52.526;13.360;2023-05-10T11:20:44;3.47;;;3.10;;
3755;SDS011;1893;52.526;13.360;2023-05-10T11:23:15;3.27;;;2.47;;
3755;SDS011;1893;52.526;13.360;2023-05-10T11:25:43;6.17;;;3.30;;
3755;SDS011;1893;52.526;13.360;2023-05-10T11:28:09;4.33;;;2.70;;
3755;SDS011;1893;52.526;13.360;2023-05-10T11:30:36;3.13;;;2.90;;
3755;SDS011;1893;52.526;13.360;2023-05-10T11:33:04;5.57;;;2.07;;
3755;SDS011;1893;52.526;13.360;2023-05-10T11:35:30;3.23;;;2.80;;
3755;SDS011;1893;52.526;13.360;2023-05-10T11:38:01;3.00;;;2.57;;
3755;SDS011;1893;52.526;13.360;2023-05-10T11:40:27;2.67;;;2.47;;
3755;SDS011;1893;52.526;13.360;2023-05-10T11:42:55;3.83;;;2.50;;
3755;SDS011;1893;52.526;13.360;2023-05-10T11:45:23;2.13;;;1.97;;
3755;SDS011;1893;52.526;13.360;2023-05-10T11:47:49;4.23;;;3.27;;
3755;SDS011;1893;52.526;13.360;2023-05-10T11:50:15;8.83;;;2.90;;
3755;SDS011;1893;52.526;13.360;2023-05-10T11:52:41;2.50;;;2.30;;
3755;SDS011;1893;52.526;13.360;2023-05-10T11:55:07;3.40;;;2.40;;
3755;SDS011;1893;52.526;13.360;2023-05-10T11:57:33;3.30;;;2.20;;
3755;SDS011;1893;52.526;13.360;2023-05-10T11:59:58;3.10;;;2.47;;
3755;SDS011;1893;52.526;13.360;2023-05-10T12:02:24;7.80;;;3.37;;
3755;SDS011;1893;52.526;13.360;2023-05-10T12:04:50;2.43;;;2.23;;
3755;SDS011;1893;52.526;13.360;2023-05-10T12:07:16;2.27;;;2.07;;
3755;SDS011;1893;52.526;13.360;2023-05-10T12:12:28;4.53;;;2.60;;
3755;SDS011;1893;52.526;13.360;2023-05-10T12:15:10;7.37;;;2.77;;
3755;SDS011;1893;52.526;13.360;2023-05-10T12:17:43;3.33;;;3.03;;
3755;SDS011;1893;52.526;13.360;2023-05-10T12:20:24;9.57;;;2.90;;
3755;SDS011;1893;52.526;13.360;2023-05-10T12:22:53;4.60;;;3.20;;
3755;SDS011;1893;52.526;13.360;2023-05-10T12:25:21;3.13;;;2.60;;
3755;SDS011;1893;52.526;13.360;2023-05-10T12:27:48;5.93;;;2.67;;
3755;SDS011;1893;52.526;13.360;2023-05-10T12:30:22;2.90;;;2.60;;
3755;SDS011;1893;52.526;13.360;2023-05-10T12:32:48;3.50;;;2.30;;
3755;SDS011;1893;52.526;13.360;2023-05-10T12:35:14;3.50;;;2.70;;
3755;SDS011;1893;52.526;13.360;2023-05-10T12:37:41;3.20;;;2.40;;
3755;SDS011;1893;52.526;13.360;2023-05-10T12:40:08;5.97;;;2.70;;
3755;SDS011;1893;52.526;13.360;2023-05-10T12:42:36;3.60;;;2.70;;
3755;SDS011;1893;52.526;13.360;2023-05-10T12:45:03;5.23;;;2.90;;
3755;SDS011;1893;52.526;13.360;2023-05-10T12:47:30;2.73;;;2.53;;
3755;SDS011;1893;52.526;13.360;2023-05-10T12:49:56;3.30;;;2.53;;
3755;SDS011;1893;52.526;13.360;2023-05-10T12:52:22;4.10;;;2.97;;
3755;SDS011;1893;52.526;13.360;2023-05-10T12:54:48;3.07;;;2.77;;
3755;SDS011;1893;52.526;13.360;2023-05-10T12:57:14;6.30;;;3.13;;
3755;SDS011;1893;52.526;13.360;2023-05-10T12:59:40;6.27;;;3.37;;
3755;SDS011;1893;52.526;13.360;2023-05-10T13:02:06;6.07;;;2.83;;
3755;SDS011;1893;52.526;13.360;2023-05-10T13:04:32;3.03;;;2.83;;
3755;SDS011;1893;52.526;13.360;2023-05-10T13:06:57;7.83;;;3.57;;
3755;SDS011;1893;52.526;13.360;2023-05-10T13:09:26;3.73;;;3.07;;
3755;SDS011;1893;52.526;13.360;2023-05-10T13:11:54;2.90;;;2.47;;
3755;SDS011;1893;52.526;13.360;2023-05-10T13:14:20;6.53;;;3.20;;
3755;SDS011;1893;52.526;13.360;2023-05-10T13:16:46;5.17;;;3.00;;
3755;SDS011;1893;52.526;13.360;2023-05-10T13:19:12;7.53;;;2.70;;
3755;SDS011;1893;52.526;13.360;2023-05-10T13:21:39;4.00;;;2.57;;
3755;SDS011;1893;52.526;13.360;2023-05-10T13:24:06;3.40;;;3.10;;
3755;SDS011;1893;52.526;13.360;2023-05-10T13:26:32;5.53;;;3.00;;
3755;SDS011;1893;52.526;13.360;2023-05-10T13:28:58;2.70;;;2.50;;
3755;SDS011;1893;52.526;13.360;2023-05-10T13:31:24;3.03;;;2.73;;
3755;SDS011;1893;52.526;13.360;2023-05-10T13:33:50;4.60;;;2.67;;
3755;SDS011;1893;52.526;13.360;2023-05-10T13:36:16;3.33;;;2.77;;
3755;SDS011;1893;52.526;13.360;2023-05-10T13:38:41;4.17;;;2.60;;
3755;SDS011;1893;52.526;13.360;2023-05-10T13:41:07;4.70;;;2.83;;
3755;SDS011;1893;52.526;13.360;2023-05-10T13:43:32;3.97;;;2.90;;
3755;SDS011;1893;52.526;13.360;2023-05-10T13:45:58;3.80;;;3.00;;
3755;SDS011;1893;52.526;13.360;2023-05-10T13:48:24;3.07;;;2.63;;
3755;SDS011;1893;52.526;13.360;2023-05-10T13:50:49;4.23;;;2.90;;
3755;SDS011;1893;52.526;13.360;2023-05-10T13:53:15;4.27;;;2.60;;
3755;SDS011;1893;52.526;13.360;2023-05-10T13:55:41;4.53;;;2.53;;
3755;SDS011;1893;52.526;13.360;2023-05-10T13:58:06;2.67;;;2.47;;
3755;SDS011;1893;52.526;13.360;2023-05-10T14:00:32;3.43;;;2.60;;
3755;SDS011;1893;52.526;13.360;2023-05-10T14:02:58;4.10;;;2.43;;
3755;SDS011;1893;52.526;13.360;2023-05-10T14:05:23;3.10;;;2.40;;
3755;SDS011;1893;52.526;13.360;2023-05-10T14:07:49;3.23;;;2.37;;
3755;SDS011;1893;52.526;13.360;2023-05-10T14:10:15;2.27;;;2.10;;
3755;SDS011;1893;52.526;13.360;2023-05-10T14:12:41;2.70;;;2.50;;
3755;SDS011;1893;52.526;13.360;2023-05-10T14:15:07;2.67;;;2.50;;
3755;SDS011;1893;52.526;13.360;2023-05-10T14:17:35;3.63;;;2.60;;
3755;SDS011;1893;52.526;13.360;2023-05-10T14:20:01;4.47;;;2.43;;
3755;SDS011;1893;52.526;13.360;2023-05-10T14:22:27;4.63;;;2.40;;
3755;SDS011;1893;52.526;13.360;2023-05-10T14:24:52;3.87;;;2.70;;
3755;SDS011;1893;52.526;13.360;2023-05-10T14:27:18;3.47;;;3.07;;
3755;SDS011;1893;52.526;13.360;2023-05-10T14:29:44;2.60;;;2.40;;
3755;SDS011;1893;52.526;13.360;2023-05-10T14:32:10;6.43;;;2.57;;
3755;SDS011;1893;52.526;13.360;2023-05-10T14:34:35;5.20;;;1.93;;
3755;SDS011;1893;52.526;13.360;2023-05-10T14:37:01;4.80;;;2.67;;
3755;SDS011;1893;52.526;13.360;2023-05-10T14:39:27;3.00;;;2.47;;
3755;SDS011;1893;52.526;13.360;2023-05-10T14:41:54;4.73;;;2.70;;
3755;SDS011;1893;52.526;13.360;2023-05-10T14:44:20;5.10;;;1.97;;
3755;SDS011;1893;52.526;13.360;2023-05-10T14:46:46;2.90;;;2.20;;
3755;SDS011;1893;52.526;13.360;2023-05-10T14:49:12;2.47;;;2.27;;
3755;SDS011;1893;52.526;13.360;2023-05-10T14:51:37;3.87;;;2.33;;
3755;SDS011;1893;52.526;13.360;2023-05-10T14:54:03;2.87;;;2.67;;
3755;SDS011;1893;52.526;13.360;2023-05-10T14:56:29;2.67;;;2.00;;
3755;SDS011;1893;52.526;13.360;2023-05-10T14:58:54;3.63;;;2.50;;
3755;SDS011;1893;52.526;13.360;2023-05-10T15:01:20;2.90;;;2.50;;
3755;SDS011;1893;52.526;13.360;2023-05-10T15:03:46;2.90;;;2.50;;
3755;SDS011;1893;52.526;13.360;2023-05-10T15:06:13;4.90;;;2.30;;
3755;SDS011;1893;52.526;13.360;2023-05-10T15:08:40;4.37;;;2.50;;
3755;SDS011;1893;52.526;13.360;2023-05-10T15:11:06;2.73;;;2.50;;
3755;SDS011;1893;52.526;13.360;2023-05-10T15:13:31;2.60;;;2.40;;
3755;SDS011;1893;52.526;13.360;2023-05-10T15:15:57;4.17;;;2.60;;
3755;SDS011;1893;52.526;13.360;2023-05-10T15:18:23;2.90;;;2.43;;
3755;SDS011;1893;52.526;13.360;2023-05-10T15:20:48;3.17;;;2.87;;
3755;SDS011;1893;52.526;13.360;2023-05-10T15:23:14;3.37;;;2.60;;
3755;SDS011;1893;52.526;13.360;2023-05-10T15:25:40;4.43;;;3.20;;
3755;SDS011;1893;52.526;13.360;2023-05-10T15:28:05;3.27;;;2.93;;
3755;SDS011;1893;52.526;13.360;2023-05-10T15:30:31;3.40;;;2.47;;
3755;SDS011;1893;52.526;13.360;2023-05-10T15:32:57;2.73;;;2.37;;